sensor_id;sensor_type;location;lat;lon;timestamp;pressure;altitude;pressure_sealevel;temperature;humidity
59073;BME280;44859;51.934;15.554;2023-03-23T00:08:54;98966.00;;;10.67;65.20
59073;BME280;44859;51.934;15.554;2023-03-23T00:12:59;98960.58;;;10.66;65.11
59073;BME280;44859;51.934;15.554;2023-03-23T00:16:07;98965.23;;;10.68;65.10
59073;BME280;44859;51.934;15.554;2023-03-23T00:19:44;98964.80;;;10.69;64.83
59073;BME280;44859;51.934;15.554;2023-03-23T00:26:50;98961.55;;;10.73;65.00
59073;BME280;44859;51.934;15.554;2023-03-23T00:48:24;98940.80;;;10.62;64.95
59073;BME280;44859;51.934;15.554;2023-03-23T00:55:11;98928.52;;;10.59;65.23
59073;BME280;44859;51.934;15.554;2023-03-23T00:59:01;98924.48;;;10.57;65.08
59073;BME280;44859;51.934;15.554;2023-03-23T01:02:35;98917.08;;;10.54;65.07
59073;BME280;44859;51.934;15.554;2023-03-23T01:06:02;98917.74;;;10.55;65.24
59073;BME280;44859;51.934;15.554;2023-03-23T01:13:26;98912.13;;;10.55;65.14
59073;BME280;44859;51.934;15.554;2023-03-23T01:16:36;98907.98;;;10.54;65.11
59073;BME280;44859;51.934;15.554;2023-03-23T01:26:58;98903.44;;;10.59;65.12
59073;BME280;44859;51.934;15.554;2023-03-23T01:37:12;98897.52;;;10.66;64.61
59073;BME280;44859;51.934;15.554;2023-03-23T01:39:59;98892.06;;;10.67;64.48
59073;BME280;44859;51.934;15.554;2023-03-23T01:42:45;98887.02;;;10.69;64.53
59073;BME280;44859;51.934;15.554;2023-03-23T01:54:25;98880.30;;;10.72;64.23
59073;BME280;44859;51.934;15.554;2023-03-23T02:12:49;98864.42;;;10.54;64.93
59073;BME280;44859;51.934;15.554;2023-03-23T02:27:20;98855.48;;;10.49;65.07
59073;BME280;44859;51.934;15.554;2023-03-23T02:34:54;98858.45;;;10.54;64.82
59073;BME280;44859;51.934;15.554;2023-03-23T02:42:13;98853.92;;;10.54;64.86
59073;BME280;44859;51.934;15.554;2023-03-23T02:45:43;98850.58;;;10.54;64.60
59073;BME280;44859;51.934;15.554;2023-03-23T02:49:11;98846.63;;;10.53;64.65
59073;BME280;44859;51.934;15.554;2023-03-23T02:56:55;98842.13;;;10.49;64.76
59073;BME280;44859;51.934;15.554;2023-03-23T03:11:33;98834.63;;;10.48;65.10
59073;BME280;44859;51.934;15.554;2023-03-23T03:19:13;98830.66;;;10.41;65.20
59073;BME280;44859;51.934;15.554;2023-03-23T03:21:52;98827.65;;;10.38;65.30
59073;BME280;44859;51.934;15.554;2023-03-23T03:25:12;98820.99;;;10.36;65.63
59073;BME280;44859;51.934;15.554;2023-03-23T03:31:43;98825.17;;;10.39;65.29
59073;BME280;44859;51.934;15.554;2023-03-23T03:34:27;98824.15;;;10.41;65.33
59073;BME280;44859;51.934;15.554;2023-03-23T03:38:26;98822.42;;;10.44;65.52
59073;BME280;44859;51.934;15.554;2023-03-23T03:40:51;98819.53;;;10.48;65.25
59073;BME280;44859;51.934;15.554;2023-03-23T03:43:48;98816.70;;;10.51;65.01
59073;BME280;44859;51.934;15.554;2023-03-23T03:47:31;98818.84;;;10.56;65.12
59073;BME280;44859;51.934;15.554;2023-03-23T03:50:58;98821.60;;;10.59;65.18
59073;BME280;44859;51.934;15.554;2023-03-23T04:01:47;98806.52;;;10.65;64.94
59073;BME280;44859;51.934;15.554;2023-03-23T04:11:47;98798.78;;;10.65;64.96
59073;BME280;44859;51.934;15.554;2023-03-23T04:14:28;98800.78;;;10.64;64.63
59073;BME280;44859;51.934;15.554;2023-03-23T04:17:33;98801.77;;;10.62;64.62
59073;BME280;44859;51.934;15.554;2023-03-23T04:21:21;98798.32;;;10.58;64.98
59073;BME280;44859;51.934;15.554;2023-03-23T04:24:48;98797.02;;;10.57;64.80
59073;BME280;44859;51.934;15.554;2023-03-23T04:28:55;98798.81;;;10.56;64.63
59073;BME280;44859;51.934;15.554;2023-03-23T04:32:41;98791.36;;;10.55;64.81
59073;BME280;44859;51.934;15.554;2023-03-23T04:43:25;98784.46;;;10.50;64.83
59073;BME280;44859;51.934;15.554;2023-03-23T04:49:48;98785.41;;;10.43;64.82
59073;BME280;44859;51.934;15.554;2023-03-23T04:52:38;98780.77;;;10.42;65.10
59073;BME280;44859;51.934;15.554;2023-03-23T04:58:13;98773.08;;;10.33;65.18
59073;BME280;44859;51.934;15.554;2023-03-23T05:01:17;98772.52;;;10.28;65.53
59073;BME280;44859;51.934;15.554;2023-03-23T05:05:04;98771.73;;;10.24;65.90
59073;BME280;44859;51.934;15.554;2023-03-23T05:08:02;98772.27;;;10.24;65.60
59073;BME280;44859;51.934;15.554;2023-03-23T05:11:22;98770.84;;;10.24;65.64
59073;BME280;44859;51.934;15.554;2023-03-23T05:14:12;98774.58;;;10.25;65.58
59073;BME280;44859;51.934;15.554;2023-03-23T05:16:49;98772.20;;;10.27;65.46
59073;BME280;44859;51.934;15.554;2023-03-23T05:19:33;98772.11;;;10.29;65.20
59073;BME280;44859;51.934;15.554;2023-03-23T05:22:34;98774.70;;;10.29;65.74
59073;BME280;44859;51.934;15.554;2023-03-23T05:25:44;98773.01;;;10.31;65.58
59073;BME280;44859;51.934;15.554;2023-03-23T05:28:21;98771.58;;;10.32;65.50
59073;BME280;44859;51.934;15.554;2023-03-23T05:31:22;98771.72;;;10.32;65.91
59073;BME280;44859;51.934;15.554;2023-03-23T05:34:01;98772.08;;;10.35;65.46
59073;BME280;44859;51.934;15.554;2023-03-23T05:41:59;98770.06;;;10.45;65.60
59073;BME280;44859;51.934;15.554;2023-03-23T05:44:32;98768.43;;;10.48;65.25
59073;BME280;44859;51.934;15.554;2023-03-23T05:47:20;98768.61;;;10.51;64.61
59073;BME280;44859;51.934;15.554;2023-03-23T05:50:34;98765.41;;;10.54;65.06
59073;BME280;44859;51.934;15.554;2023-03-23T05:53:58;98761.69;;;10.60;64.64
59073;BME280;44859;51.934;15.554;2023-03-23T05:56:42;98763.48;;;10.65;64.49
59073;BME280;44859;51.934;15.554;2023-03-23T05:59:42;98767.14;;;10.71;64.39
59073;BME280;44859;51.934;15.554;2023-03-23T06:07:00;98761.54;;;10.84;64.05
59073;BME280;44859;51.934;15.554;2023-03-23T06:09:55;98756.65;;;10.89;63.91
59073;BME280;44859;51.934;15.554;2023-03-23T06:13:00;98754.71;;;10.94;63.56
59073;BME280;44859;51.934;15.554;2023-03-23T06:16:28;98758.80;;;10.99;63.30
59073;BME280;44859;51.934;15.554;2023-03-23T06:19:27;98758.32;;;11.01;63.56
59073;BME280;44859;51.934;15.554;2023-03-23T06:22:42;98757.38;;;11.04;63.36
59073;BME280;44859;51.934;15.554;2023-03-23T06:25:48;98759.38;;;11.11;63.47
59073;BME280;44859;51.934;15.554;2023-03-23T06:29:18;98747.36;;;11.25;63.30
59073;BME280;44859;51.934;15.554;2023-03-23T06:35:52;98750.72;;;11.56;62.76
59073;BME280;44859;51.934;15.554;2023-03-23T06:38:39;98750.39;;;11.66;62.42
59073;BME280;44859;51.934;15.554;2023-03-23T06:42:16;98750.77;;;11.75;62.36
59073;BME280;44859;51.934;15.554;2023-03-23T06:46:06;98748.67;;;11.83;61.77
59073;BME280;44859;51.934;15.554;2023-03-23T06:48:57;98746.14;;;11.89;61.76
59073;BME280;44859;51.934;15.554;2023-03-23T06:51:35;98738.44;;;11.94;62.13
59073;BME280;44859;51.934;15.554;2023-03-23T06:57:43;98751.20;;;12.02;61.77
59073;BME280;44859;51.934;15.554;2023-03-23T07:00:37;98755.36;;;12.08;61.79
59073;BME280;44859;51.934;15.554;2023-03-23T07:07:13;98760.00;;;12.12;61.72
59073;BME280;44859;51.934;15.554;2023-03-23T07:09:58;98762.61;;;12.12;61.77
59073;BME280;44859;51.934;15.554;2023-03-23T07:12:29;98764.34;;;12.13;61.50
59073;BME280;44859;51.934;15.554;2023-03-23T07:18:48;98768.95;;;12.17;61.70
59073;BME280;44859;51.934;15.554;2023-03-23T07:21:21;98767.96;;;12.21;61.94
59073;BME280;44859;51.934;15.554;2023-03-23T07:24:05;98774.38;;;12.28;61.89
59073;BME280;44859;51.934;15.554;2023-03-23T07:26:51;98777.25;;;12.37;61.80
59073;BME280;44859;51.934;15.554;2023-03-23T07:29:30;98775.89;;;12.46;61.27
59073;BME280;44859;51.934;15.554;2023-03-23T07:32:21;98776.34;;;12.54;61.31
59073;BME280;44859;51.934;15.554;2023-03-23T07:34:52;98781.39;;;12.60;61.18
59073;BME280;44859;51.934;15.554;2023-03-23T07:37:42;98783.95;;;12.63;60.92
59073;BME280;44859;51.934;15.554;2023-03-23T07:40:45;98776.05;;;12.66;60.98
59073;BME280;44859;51.934;15.554;2023-03-23T07:43:20;98771.92;;;12.66;61.02
59073;BME280;44859;51.934;15.554;2023-03-23T07:46:36;98768.84;;;12.70;61.07
59073;BME280;44859;51.934;15.554;2023-03-23T07:49:07;98770.55;;;12.80;60.93
59073;BME280;44859;51.934;15.554;2023-03-23T07:51:41;98766.61;;;12.93;60.73
59073;BME280;44859;51.934;15.554;2023-03-23T07:54:09;98774.05;;;13.09;60.72
59073;BME280;44859;51.934;15.554;2023-03-23T07:56:51;98778.15;;;13.27;60.46
59073;BME280;44859;51.934;15.554;2023-03-23T07:59:20;98780.83;;;13.37;60.15
59073;BME280;44859;51.934;15.554;2023-03-23T08:02:38;98778.32;;;13.37;59.76
59073;BME280;44859;51.934;15.554;2023-03-23T08:05:41;98786.93;;;13.37;59.74
59073;BME280;44859;51.934;15.554;2023-03-23T08:08:33;98786.50;;;13.39;59.40
59073;BME280;44859;51.934;15.554;2023-03-23T08:11:04;98791.89;;;13.37;59.37
59073;BME280;44859;51.934;15.554;2023-03-23T08:17:09;98789.88;;;13.43;59.34
59073;BME280;44859;51.934;15.554;2023-03-23T08:22:51;98787.08;;;13.50;58.02
59073;BME280;44859;51.934;15.554;2023-03-23T08:25:25;98789.88;;;13.52;57.94
59073;BME280;44859;51.934;15.554;2023-03-23T08:27:56;98793.75;;;13.54;58.27
59073;BME280;44859;51.934;15.554;2023-03-23T08:34:28;98796.15;;;13.55;58.02
59073;BME280;44859;51.934;15.554;2023-03-23T08:37:07;98796.41;;;13.56;58.53
59073;BME280;44859;51.934;15.554;2023-03-23T08:42:24;98800.52;;;13.63;58.08
59073;BME280;44859;51.934;15.554;2023-03-23T08:45:16;98807.42;;;13.69;58.33
59073;BME280;44859;51.934;15.554;2023-03-23T08:48:24;98808.58;;;13.75;57.67
59073;BME280;44859;51.934;15.554;2023-03-23T08:51:12;98816.30;;;13.73;57.39
59073;BME280;44859;51.934;15.554;2023-03-23T08:54:02;98813.75;;;13.67;57.24
59073;BME280;44859;51.934;15.554;2023-03-23T08:56:43;98820.31;;;13.62;57.40
59073;BME280;44859;51.934;15.554;2023-03-23T08:59:33;98825.36;;;13.61;57.50
59073;BME280;44859;51.934;15.554;2023-03-23T09:02:21;98824.45;;;13.61;57.48
59073;BME280;44859;51.934;15.554;2023-03-23T09:07:55;98831.92;;;13.60;57.69
59073;BME280;44859;51.934;15.554;2023-03-23T09:10:47;98831.05;;;13.65;58.24
59073;BME280;44859;51.934;15.554;2023-03-23T09:13:23;98834.08;;;13.72;58.51
59073;BME280;44859;51.934;15.554;2023-03-23T09:15:54;98839.35;;;13.70;58.68
59073;BME280;44859;51.934;15.554;2023-03-23T09:18:33;98846.13;;;13.69;59.38
59073;BME280;44859;51.934;15.554;2023-03-23T09:21:05;98846.85;;;13.61;59.27
59073;BME280;44859;51.934;15.554;2023-03-23T09:23:53;98851.59;;;13.38;60.02
59073;BME280;44859;51.934;15.554;2023-03-23T09:26:42;98853.02;;;13.30;60.46
59073;BME280;44859;51.934;15.554;2023-03-23T09:30:00;98856.95;;;13.29;61.31
59073;BME280;44859;51.934;15.554;2023-03-23T09:32:32;98872.05;;;13.26;61.86
59073;BME280;44859;51.934;15.554;2023-03-23T09:35:08;98876.21;;;13.12;62.52
59073;BME280;44859;51.934;15.554;2023-03-23T09:37:57;98879.48;;;13.09;63.12
59073;BME280;44859;51.934;15.554;2023-03-23T09:40:49;98885.97;;;13.04;63.93
59073;BME280;44859;51.934;15.554;2023-03-23T09:50:19;98891.35;;;12.95;65.81
59073;BME280;44859;51.934;15.554;2023-03-23T09:53:19;98887.29;;;12.93;65.95
59073;BME280;44859;51.934;15.554;2023-03-23T09:55:54;98889.64;;;12.92;66.68
59073;BME280;44859;51.934;15.554;2023-03-23T10:04:43;98896.38;;;12.75;68.06
59073;BME280;44859;51.934;15.554;2023-03-23T10:07:21;98896.31;;;12.76;69.30
59073;BME280;44859;51.934;15.554;2023-03-23T10:09:59;98899.41;;;12.72;69.70
59073;BME280;44859;51.934;15.554;2023-03-23T10:12:56;98898.52;;;12.77;70.34
59073;BME280;44859;51.934;15.554;2023-03-23T10:15:38;98895.16;;;12.84;70.62
59073;BME280;44859;51.934;15.554;2023-03-23T10:24:12;98899.55;;;13.01;71.82
59073;BME280;44859;51.934;15.554;2023-03-23T10:41:42;98899.06;;;12.52;72.37
59073;BME280;44859;51.934;15.554;2023-03-23T10:44:43;98887.56;;;12.53;72.19
59073;BME280;44859;51.934;15.554;2023-03-23T10:47:19;98886.36;;;12.52;72.03
59073;BME280;44859;51.934;15.554;2023-03-23T10:50:04;98884.85;;;12.64;72.17
59073;BME280;44859;51.934;15.554;2023-03-23T10:53:12;98877.83;;;12.81;72.15
59073;BME280;44859;51.934;15.554;2023-03-23T10:58:36;98869.42;;;13.02;71.61
59073;BME280;44859;51.934;15.554;2023-03-23T11:01:11;98867.95;;;13.07;71.13
59073;BME280;44859;51.934;15.554;2023-03-23T11:03:48;98868.08;;;13.12;70.61
59073;BME280;44859;51.934;15.554;2023-03-23T11:06:29;98867.02;;;13.10;70.14
59073;BME280;44859;51.934;15.554;2023-03-23T11:09:14;98872.52;;;13.07;70.00
59073;BME280;44859;51.934;15.554;2023-03-23T11:11:54;98872.76;;;13.07;69.86
59073;BME280;44859;51.934;15.554;2023-03-23T11:15:26;98873.64;;;13.07;69.97
59073;BME280;44859;51.934;15.554;2023-03-23T11:18:26;98874.10;;;13.08;69.58
59073;BME280;44859;51.934;15.554;2023-03-23T11:21:34;98869.88;;;13.05;69.69
59073;BME280;44859;51.934;15.554;2023-03-23T11:24:24;98861.68;;;13.09;69.89
59073;BME280;44859;51.934;15.554;2023-03-23T11:27:06;98859.17;;;13.18;69.51
59073;BME280;44859;51.934;15.554;2023-03-23T11:29:48;98858.04;;;13.20;69.34
59073;BME280;44859;51.934;15.554;2023-03-23T11:32:16;98857.83;;;13.25;69.54
59073;BME280;44859;51.934;15.554;2023-03-23T11:34:47;98859.45;;;13.29;69.39
59073;BME280;44859;51.934;15.554;2023-03-23T11:37:40;98854.77;;;13.33;68.93
59073;BME280;44859;51.934;15.554;2023-03-23T11:40:43;98845.57;;;13.36;68.76
59073;BME280;44859;51.934;15.554;2023-03-23T11:43:30;98853.73;;;13.45;68.69
59073;BME280;44859;51.934;15.554;2023-03-23T11:46:29;98856.08;;;13.46;68.17
59073;BME280;44859;51.934;15.554;2023-03-23T11:52:40;98859.35;;;13.36;67.96
59073;BME280;44859;51.934;15.554;2023-03-23T11:55:26;98865.13;;;13.36;67.89
59073;BME280;44859;51.934;15.554;2023-03-23T11:58:17;98865.75;;;13.37;68.23
59073;BME280;44859;51.934;15.554;2023-03-23T12:00:57;98861.69;;;13.38;68.15
59073;BME280;44859;51.934;15.554;2023-03-23T12:03:53;98863.31;;;13.42;68.16
59073;BME280;44859;51.934;15.554;2023-03-23T12:06:48;98862.95;;;13.37;68.18
59073;BME280;44859;51.934;15.554;2023-03-23T12:09:58;98861.73;;;13.35;68.29
59073;BME280;44859;51.934;15.554;2023-03-23T12:36:52;98850.37;;;13.57;67.85
59073;BME280;44859;51.934;15.554;2023-03-23T12:49:46;98841.90;;;14.02;66.42
59073;BME280;44859;51.934;15.554;2023-03-23T12:52:42;98839.42;;;14.01;66.58
59073;BME280;44859;51.934;15.554;2023-03-23T13:00:13;98836.73;;;13.94;65.57
59073;BME280;44859;51.934;15.554;2023-03-23T13:03:38;98837.68;;;13.86;65.74
59073;BME280;44859;51.934;15.554;2023-03-23T13:06:33;98834.73;;;13.83;65.70
59073;BME280;44859;51.934;15.554;2023-03-23T13:09:42;98835.46;;;13.88;65.75
59073;BME280;44859;51.934;15.554;2023-03-23T13:21:50;98825.54;;;14.20;65.49
59073;BME280;44859;51.934;15.554;2023-03-23T13:24:24;98821.35;;;14.33;65.42
59073;BME280;44859;51.934;15.554;2023-03-23T13:26:54;98820.96;;;14.40;64.60
59073;BME280;44859;51.934;15.554;2023-03-23T13:29:43;98820.46;;;14.46;64.34
59073;BME280;44859;51.934;15.554;2023-03-23T13:35:02;98817.55;;;14.54;63.38
59073;BME280;44859;51.934;15.554;2023-03-23T13:37:51;98817.88;;;14.61;63.19
59073;BME280;44859;51.934;15.554;2023-03-23T13:40:30;98808.14;;;14.68;61.84
59073;BME280;44859;51.934;15.554;2023-03-23T13:43:03;98806.78;;;14.67;61.45
59073;BME280;44859;51.934;15.554;2023-03-23T13:45:48;98801.02;;;14.73;61.40
59073;BME280;44859;51.934;15.554;2023-03-23T13:51:51;98801.88;;;14.93;58.63
59073;BME280;44859;51.934;15.554;2023-03-23T13:57:37;98797.04;;;15.04;58.40
59073;BME280;44859;51.934;15.554;2023-03-23T14:03:13;98800.90;;;15.05;58.08
59073;BME280;44859;51.934;15.554;2023-03-23T14:09:03;98803.73;;;15.04;58.81
59073;BME280;44859;51.934;15.554;2023-03-23T14:11:46;98791.63;;;15.12;58.98
59073;BME280;44859;51.934;15.554;2023-03-23T14:14:40;98799.67;;;15.09;59.17
59073;BME280;44859;51.934;15.554;2023-03-23T14:19:57;98805.11;;;14.86;59.13
59073;BME280;44859;51.934;15.554;2023-03-23T14:22:43;98801.10;;;14.81;59.51
59073;BME280;44859;51.934;15.554;2023-03-23T14:25:57;98800.75;;;14.74;59.67
59073;BME280;44859;51.934;15.554;2023-03-23T14:28:27;98791.59;;;14.67;59.60
59073;BME280;44859;51.934;15.554;2023-03-23T14:31:03;98790.11;;;14.62;59.52
59073;BME280;44859;51.934;15.554;2023-03-23T14:33:47;98792.23;;;14.57;59.62
59073;BME280;44859;51.934;15.554;2023-03-23T14:36:27;98790.94;;;14.55;59.82
59073;BME280;44859;51.934;15.554;2023-03-23T14:42:53;98780.38;;;14.52;59.78
59073;BME280;44859;51.934;15.554;2023-03-23T14:46:38;98780.20;;;14.57;59.84
59073;BME280;44859;51.934;15.554;2023-03-23T14:49:27;98772.42;;;14.55;59.85
59073;BME280;44859;51.934;15.554;2023-03-23T14:52:16;98767.71;;;14.50;60.49
59073;BME280;44859;51.934;15.554;2023-03-23T14:54:47;98773.47;;;14.46;60.84
59073;BME280;44859;51.934;15.554;2023-03-23T14:57:19;98786.02;;;14.46;61.05
59073;BME280;44859;51.934;15.554;2023-03-23T14:59:50;98785.67;;;14.42;61.42
59073;BME280;44859;51.934;15.554;2023-03-23T15:02:40;98782.80;;;14.37;61.66
59073;BME280;44859;51.934;15.554;2023-03-23T15:05:15;98789.72;;;14.37;61.92
59073;BME280;44859;51.934;15.554;2023-03-23T15:07:47;98803.39;;;14.36;62.03
59073;BME280;44859;51.934;15.554;2023-03-23T15:10:31;98806.92;;;14.34;62.10
59073;BME280;44859;51.934;15.554;2023-03-23T15:13:16;98807.98;;;14.30;62.25
59073;BME280;44859;51.934;15.554;2023-03-23T15:16:17;98803.17;;;14.28;62.46
59073;BME280;44859;51.934;15.554;2023-03-23T15:19:25;98803.20;;;14.26;62.53
59073;BME280;44859;51.934;15.554;2023-03-23T15:22:20;98801.77;;;14.24;62.47
59073;BME280;44859;51.934;15.554;2023-03-23T15:25:00;98805.77;;;14.22;62.67
59073;BME280;44859;51.934;15.554;2023-03-23T15:27:33;98804.76;;;14.19;62.52
59073;BME280;44859;51.934;15.554;2023-03-23T15:30:52;98807.29;;;14.16;62.55
59073;BME280;44859;51.934;15.554;2023-03-23T15:33:21;98805.89;;;14.12;63.16
59073;BME280;44859;51.934;15.554;2023-03-23T15:39:14;98807.71;;;14.04;63.14
59073;BME280;44859;51.934;15.554;2023-03-23T15:41:48;98811.90;;;14.00;63.13
59073;BME280;44859;51.934;15.554;2023-03-23T15:44:54;98816.13;;;13.96;63.41
59073;BME280;44859;51.934;15.554;2023-03-23T15:48:10;98816.66;;;13.91;63.48
59073;BME280;44859;51.934;15.554;2023-03-23T15:51:06;98818.58;;;13.89;63.28
59073;BME280;44859;51.934;15.554;2023-03-23T15:54:14;98824.14;;;13.88;63.36
59073;BME280;44859;51.934;15.554;2023-03-23T15:56:43;98831.11;;;13.85;63.42
59073;BME280;44859;51.934;15.554;2023-03-23T15:59:15;98828.09;;;13.83;63.52
59073;BME280;44859;51.934;15.554;2023-03-23T16:01:53;98826.13;;;13.80;63.52
59073;BME280;44859;51.934;15.554;2023-03-23T16:04:25;98830.55;;;13.78;63.51
59073;BME280;44859;51.934;15.554;2023-03-23T16:07:22;98842.98;;;13.75;63.54
59073;BME280;44859;51.934;15.554;2023-03-23T16:10:17;98848.73;;;13.74;63.54
59073;BME280;44859;51.934;15.554;2023-03-23T16:12:59;98850.80;;;13.72;63.68
59073;BME280;44859;51.934;15.554;2023-03-23T16:15:37;98849.32;;;13.71;63.75
59073;BME280;44859;51.934;15.554;2023-03-23T16:18:06;98846.63;;;13.69;63.98
59073;BME280;44859;51.934;15.554;2023-03-23T16:20:52;98837.33;;;13.66;63.96
59073;BME280;44859;51.934;15.554;2023-03-23T16:23:31;98839.02;;;13.62;64.12
59073;BME280;44859;51.934;15.554;2023-03-23T16:26:23;98844.08;;;13.63;64.16
59073;BME280;44859;51.934;15.554;2023-03-23T16:28:59;98848.13;;;13.63;64.49
59073;BME280;44859;51.934;15.554;2023-03-23T16:31:48;98854.14;;;13.60;64.56
59073;BME280;44859;51.934;15.554;2023-03-23T16:34:57;98857.27;;;13.59;64.92
59073;BME280;44859;51.934;15.554;2023-03-23T16:37:44;98860.02;;;13.58;65.00
59073;BME280;44859;51.934;15.554;2023-03-23T16:40:37;98861.52;;;13.54;65.38
59073;BME280;44859;51.934;15.554;2023-03-23T16:43:06;98866.76;;;13.50;65.49
59073;BME280;44859;51.934;15.554;2023-03-23T16:45:43;98857.88;;;13.48;65.61
59073;BME280;44859;51.934;15.554;2023-03-23T16:48:15;98859.11;;;13.46;65.91
59073;BME280;44859;51.934;15.554;2023-03-23T16:50:56;98853.00;;;13.43;66.01
59073;BME280;44859;51.934;15.554;2023-03-23T16:53:40;98865.38;;;13.40;66.24
59073;BME280;44859;51.934;15.554;2023-03-23T16:56:29;98877.91;;;13.40;66.08
59073;BME280;44859;51.934;15.554;2023-03-23T16:58:58;98874.02;;;13.40;66.06
59073;BME280;44859;51.934;15.554;2023-03-23T17:01:27;98876.00;;;13.46;65.19
59073;BME280;44859;51.934;15.554;2023-03-23T17:03:57;98878.80;;;13.54;65.11
59073;BME280;44859;51.934;15.554;2023-03-23T17:06:29;98877.10;;;13.55;64.91
59073;BME280;44859;51.934;15.554;2023-03-23T17:09:24;98882.14;;;13.52;64.84
59073;BME280;44859;51.934;15.554;2023-03-23T17:11:54;98885.46;;;13.50;64.67
59073;BME280;44859;51.934;15.554;2023-03-23T17:14:25;98890.06;;;13.50;64.70
59073;BME280;44859;51.934;15.554;2023-03-23T17:16:54;98890.94;;;13.47;64.70
59073;BME280;44859;51.934;15.554;2023-03-23T17:19:26;98884.65;;;13.46;64.84
59073;BME280;44859;51.934;15.554;2023-03-23T17:21:55;98874.89;;;13.45;64.77
59073;BME280;44859;51.934;15.554;2023-03-23T17:24:25;98877.24;;;13.42;64.88
59073;BME280;44859;51.934;15.554;2023-03-23T17:26:57;98886.86;;;13.36;64.90
59073;BME280;44859;51.934;15.554;2023-03-23T17:29:28;98894.46;;;13.28;65.23
59073;BME280;44859;51.934;15.554;2023-03-23T17:31:59;98904.09;;;13.21;65.15
59073;BME280;44859;51.934;15.554;2023-03-23T17:34:31;98908.44;;;13.18;65.26
59073;BME280;44859;51.934;15.554;2023-03-23T17:40:46;98906.45;;;13.09;65.50
59073;BME280;44859;51.934;15.554;2023-03-23T17:43:24;98905.33;;;13.05;65.87
59073;BME280;44859;51.934;15.554;2023-03-23T17:45:52;98899.47;;;12.98;65.79
59073;BME280;44859;51.934;15.554;2023-03-23T17:48:32;98906.37;;;12.95;65.81
59073;BME280;44859;51.934;15.554;2023-03-23T17:51:02;98912.98;;;12.91;65.97
59073;BME280;44859;51.934;15.554;2023-03-23T17:53:38;98918.00;;;12.85;66.05
59073;BME280;44859;51.934;15.554;2023-03-23T17:56:27;98919.69;;;12.82;66.28
59073;BME280;44859;51.934;15.554;2023-03-23T17:58:56;98923.48;;;12.77;66.27
59073;BME280;44859;51.934;15.554;2023-03-23T18:01:35;98915.93;;;12.75;66.35
59073;BME280;44859;51.934;15.554;2023-03-23T18:04:06;98925.55;;;12.73;66.28
59073;BME280;44859;51.934;15.554;2023-03-23T18:06:37;98930.59;;;12.69;66.13
59073;BME280;44859;51.934;15.554;2023-03-23T18:09:06;98937.54;;;12.64;66.43
59073;BME280;44859;51.934;15.554;2023-03-23T18:11:38;98934.58;;;12.57;66.58
59073;BME280;44859;51.934;15.554;2023-03-23T18:14:07;98933.71;;;12.55;66.59
59073;BME280;44859;51.934;15.554;2023-03-23T18:16:35;98922.48;;;12.54;66.28
59073;BME280;44859;51.934;15.554;2023-03-23T18:19:04;98922.34;;;12.56;66.39
59073;BME280;44859;51.934;15.554;2023-03-23T18:21:36;98920.46;;;12.55;66.37
59073;BME280;44859;51.934;15.554;2023-03-23T18:24:10;98922.17;;;12.54;66.48
59073;BME280;44859;51.934;15.554;2023-03-23T18:26:42;98920.79;;;12.53;66.27
59073;BME280;44859;51.934;15.554;2023-03-23T18:29:13;98907.35;;;12.52;66.09
59073;BME280;44859;51.934;15.554;2023-03-23T18:31:50;98915.48;;;12.46;66.51
59073;BME280;44859;51.934;15.554;2023-03-23T18:34:28;98920.58;;;12.41;66.49
59073;BME280;44859;51.934;15.554;2023-03-23T18:37:05;98920.64;;;12.38;66.50
59073;BME280;44859;51.934;15.554;2023-03-23T18:39:39;98915.02;;;12.37;66.62
59073;BME280;44859;51.934;15.554;2023-03-23T18:42:14;98922.61;;;12.35;66.42
59073;BME280;44859;51.934;15.554;2023-03-23T18:44:48;98929.68;;;12.35;66.52
59073;BME280;44859;51.934;15.554;2023-03-23T18:47:29;98922.80;;;12.35;66.63
59073;BME280;44859;51.934;15.554;2023-03-23T18:49:58;98920.20;;;12.34;66.66
59073;BME280;44859;51.934;15.554;2023-03-23T18:52:35;98921.89;;;12.33;66.80
59073;BME280;44859;51.934;15.554;2023-03-23T18:55:09;98913.27;;;12.33;66.49
59073;BME280;44859;51.934;15.554;2023-03-23T18:57:39;98914.02;;;12.32;66.74
59073;BME280;44859;51.934;15.554;2023-03-23T19:00:08;98913.88;;;12.29;66.73
59073;BME280;44859;51.934;15.554;2023-03-23T19:02:41;98911.75;;;12.27;66.82
59073;BME280;44859;51.934;15.554;2023-03-23T19:05:10;98907.93;;;12.23;67.17
59073;BME280;44859;51.934;15.554;2023-03-23T19:07:39;98906.89;;;12.18;67.22
59073;BME280;44859;51.934;15.554;2023-03-23T19:10:07;98907.42;;;12.13;67.25
59073;BME280;44859;51.934;15.554;2023-03-23T19:12:36;98911.17;;;12.07;67.20
59073;BME280;44859;51.934;15.554;2023-03-23T19:15:05;98909.77;;;12.02;67.23
59073;BME280;44859;51.934;15.554;2023-03-23T19:17:35;98913.56;;;11.98;67.72
59073;BME280;44859;51.934;15.554;2023-03-23T19:20:07;98914.21;;;11.94;67.75
59073;BME280;44859;51.934;15.554;2023-03-23T19:22:44;98921.98;;;11.90;68.09
59073;BME280;44859;51.934;15.554;2023-03-23T19:25:12;98925.56;;;11.86;68.01
59073;BME280;44859;51.934;15.554;2023-03-23T19:27:41;98932.77;;;11.81;67.83
59073;BME280;44859;51.934;15.554;2023-03-23T19:30:31;98938.20;;;11.74;68.27
59073;BME280;44859;51.934;15.554;2023-03-23T19:33:00;98950.58;;;11.70;68.48
59073;BME280;44859;51.934;15.554;2023-03-23T19:35:30;98953.54;;;11.65;68.59
59073;BME280;44859;51.934;15.554;2023-03-23T19:37:59;98954.34;;;11.63;68.60
59073;BME280;44859;51.934;15.554;2023-03-23T19:40:28;98953.41;;;11.62;68.86
59073;BME280;44859;51.934;15.554;2023-03-23T19:43:08;98953.14;;;11.61;68.97
59073;BME280;44859;51.934;15.554;2023-03-23T19:45:46;98951.70;;;11.59;68.96
59073;BME280;44859;51.934;15.554;2023-03-23T19:48:16;98948.21;;;11.58;69.10